createdAt,value
2022-10-31T00:01:02.366Z,99886.94
2022-10-31T00:03:28.907Z,99887.25
2022-10-31T00:05:55.459Z,99888.03
2022-10-31T00:08:21.993Z,99886.66
2022-10-31T00:10:48.507Z,99891.50
2022-10-31T00:13:15.538Z,99881.19
2022-10-31T00:15:42.336Z,99892.53
2022-10-31T00:18:10.426Z,99889.81
2022-10-31T00:20:37.839Z,99891.44
2022-10-31T00:23:05.687Z,99884.94
2022-10-31T00:25:36.873Z,99883.56
2022-10-31T00:28:04.995Z,99881.63
2022-10-31T00:30:31.693Z,99886.47
2022-10-31T00:32:58.443Z,99883.75
2022-10-31T00:35:25.321Z,99892.38
2022-10-31T00:37:53.581Z,99888.06
2022-10-31T00:40:20.150Z,99892.38
2022-10-31T00:42:46.739Z,99892.38
2022-10-31T00:45:13.446Z,99890.78
2022-10-31T00:47:39.929Z,99900.00
2022-10-31T00:50:07.308Z,99897.81
2022-10-31T00:52:33.883Z,99895.66
2022-10-31T00:55:00.425Z,99894.81
2022-10-31T00:57:27.069Z,99895.69
2022-10-31T00:59:53.666Z,99895.75
2022-10-31T01:02:20.368Z,99891.44
2022-10-31T01:04:47.037Z,99889.53
2022-10-31T01:07:15.049Z,99886.25
2022-10-31T01:09:42.204Z,99884.34
2022-10-31T01:12:09.214Z,99891.09
2022-10-31T01:14:35.733Z,99885.38
2022-10-31T01:17:02.372Z,99886.97
2022-10-31T01:19:30.312Z,99881.34
2022-10-31T01:21:56.816Z,99884.84
2022-10-31T01:24:23.595Z,99881.56
2022-10-31T01:26:50.118Z,99877.78
2022-10-31T01:29:16.661Z,99875.06
2022-10-31T01:31:43.185Z,99869.13
2022-10-31T01:34:14.683Z,99873.50
2022-10-31T01:36:42.148Z,99868.59
2022-10-31T01:39:12.108Z,99866.72
2022-10-31T01:41:41.367Z,99868.03
2022-10-31T01:44:16.896Z,99866.97
2022-10-31T01:46:54.932Z,99864.53
2022-10-31T01:49:38.464Z,99868.69
2022-10-31T01:52:11.354Z,99861.13
2022-10-31T01:54:46.572Z,99860.63
2022-10-31T01:57:15.646Z,99856.59
2022-10-31T01:59:48.430Z,99857.41
2022-10-31T02:02:18.033Z,99856.81
2022-10-31T02:04:45.839Z,99851.66
2022-10-31T02:07:17.198Z,99852.38
2022-10-31T02:09:46.090Z,99846.59
2022-10-31T02:12:13.569Z,99845.72
2022-10-31T02:14:41.511Z,99843.53
2022-10-31T02:17:08.095Z,99848.94
2022-10-31T02:20:01.864Z,99845.72
2022-10-31T02:22:43.233Z,99847.63
2022-10-31T02:25:37.597Z,99833.28
2022-10-31T02:28:22.409Z,99824.84
2022-10-31T02:31:07.731Z,99825.09
2022-10-31T02:33:34.199Z,99826.69
2022-10-31T02:36:33.936Z,99817.47
2022-10-31T02:39:30.121Z,99812.56
2022-10-31T02:41:59.400Z,99820.34
2022-10-31T02:44:44.037Z,99819.50
2022-10-31T02:47:15.120Z,99806.50
2022-10-31T02:49:46.694Z,99810.28
2022-10-31T02:52:25.668Z,99807.66
2022-10-31T02:54:52.599Z,99802.84
2022-10-31T02:57:25.744Z,99803.44
2022-10-31T02:59:58.736Z,99792.59
2022-10-31T03:02:46.512Z,99807.50
2022-10-31T03:05:22.417Z,99811.81
2022-10-31T03:07:55.032Z,99811.81
2022-10-31T03:10:37.317Z,99812.13
2022-10-31T03:13:09.843Z,99823.63
2022-10-31T03:15:41.537Z,99818.72
2022-10-31T03:18:16.209Z,99812.81
2022-10-31T03:20:55.726Z,99811.72
2022-10-31T03:23:24.177Z,99814.41
2022-10-31T03:25:53.469Z,99812.81
2022-10-31T03:28:26.578Z,99812.81
2022-10-31T03:30:54.618Z,99815.50
2022-10-31T03:33:28.276Z,99820.94
2022-10-31T03:35:59.392Z,99818.22
2022-10-31T03:38:26.999Z,99817.69
2022-10-31T03:40:57.029Z,99814.78
2022-10-31T03:43:30.139Z,99822.38
2022-10-31T03:45:57.419Z,99825.38
2022-10-31T03:48:24.775Z,99818.34
2022-10-31T03:51:09.945Z,99805.91
2022-10-31T03:53:45.015Z,99809.19
2022-10-31T03:56:34.765Z,99808.19
2022-10-31T03:59:03.483Z,99813.59
2022-10-31T04:01:33.236Z,99813.59
2022-10-31T04:04:01.162Z,99814.69
2022-10-31T04:06:28.858Z,99816.88
2022-10-31T04:09:01.567Z,99802.81
2022-10-31T04:11:32.517Z,99810.66
2022-10-31T04:14:02.636Z,99802.25
2022-10-31T04:16:29.553Z,99810.06
2022-10-31T04:18:57.337Z,99803.84
2022-10-31T04:21:31.488Z,99808.75
2022-10-31T04:23:58.442Z,99802.25
2022-10-31T04:26:25.047Z,99808.47
2022-10-31T04:28:51.580Z,99803.03
2022-10-31T04:31:18.541Z,99809.28
2022-10-31T04:33:45.103Z,99805.47
2022-10-31T04:36:11.793Z,99808.69
2022-10-31T04:38:38.423Z,99810.81
2022-10-31T04:41:05.091Z,99811.31
2022-10-31T04:43:31.621Z,99809.94
2022-10-31T04:45:58.145Z,99801.22
2022-10-31T04:48:24.662Z,99800.13
2022-10-31T04:50:51.156Z,99792.81
2022-10-31T04:53:17.682Z,99796.91
2022-10-31T04:55:44.198Z,99793.97
2022-10-31T04:58:10.759Z,99788.06
2022-10-31T05:00:37.308Z,99785.41
2022-10-31T05:03:04.030Z,99791.44
2022-10-31T05:05:32.195Z,99788.22
2022-10-31T05:07:58.832Z,99789.84
2022-10-31T05:10:28.375Z,99788.84
2022-10-31T05:13:00.372Z,99779.19
2022-10-31T05:15:28.340Z,99778.44
2022-10-31T05:17:55.535Z,99779.00
2022-10-31T05:20:25.052Z,99772.78
2022-10-31T05:22:53.902Z,99769.00
2022-10-31T05:25:22.788Z,99769.53
2022-10-31T05:27:51.432Z,99764.63
2022-10-31T05:30:21.136Z,99765.41
2022-10-31T05:32:49.244Z,99771.66
2022-10-31T05:35:18.334Z,99777.06
2022-10-31T05:37:44.894Z,99774.03
2022-10-31T05:40:13.726Z,99763.22
2022-10-31T05:42:41.409Z,99764.03
2022-10-31T05:45:13.629Z,99753.72
2022-10-31T05:47:40.672Z,99752.63
2022-10-31T05:50:08.579Z,99755.19
2022-10-31T05:52:35.536Z,99743.44
2022-10-31T05:55:02.145Z,99746.25
2022-10-31T05:57:30.360Z,99738.09
2022-10-31T05:59:56.946Z,99738.31
2022-10-31T06:02:23.508Z,99734.69
2022-10-31T06:04:50.159Z,99739.09
2022-10-31T06:07:16.790Z,99729.16
2022-10-31T06:09:43.313Z,99721.59
2022-10-31T06:12:10.026Z,99728.38
2022-10-31T06:14:36.528Z,99729.97
2022-10-31T06:17:03.049Z,99725.66
2022-10-31T06:19:29.569Z,99725.03
2022-10-31T06:21:56.121Z,99719.59
2022-10-31T06:24:22.698Z,99720.13
2022-10-31T06:26:49.305Z,99725.22
2022-10-31T06:29:15.851Z,99728.00
2022-10-31T06:31:42.352Z,99725.78
2022-10-31T06:34:09.106Z,99724.38
2022-10-31T06:36:35.638Z,99725.84
2022-10-31T06:39:02.167Z,99721.09
2022-10-31T06:41:28.681Z,99725.56
2022-10-31T06:43:55.208Z,99723.97
2022-10-31T06:46:21.792Z,99725.53
2022-10-31T06:48:48.353Z,99729.97
2022-10-31T06:51:14.887Z,99734.44
2022-10-31T06:53:41.480Z,99732.53
2022-10-31T06:56:08.237Z,99736.72
2022-10-31T06:58:34.814Z,99733.56
2022-10-31T07:01:01.782Z,99735.03
2022-10-31T07:03:28.667Z,99740.97
2022-10-31T07:05:58.675Z,99741.84
2022-10-31T07:08:25.570Z,99743.56
2022-10-31T07:10:54.497Z,99752.78
2022-10-31T07:13:26.401Z,99744.81
2022-10-31T07:16:01.535Z,99754.38
2022-10-31T07:18:28.557Z,99759.50
2022-10-31T07:20:55.268Z,99749.97
2022-10-31T07:23:22.710Z,99757.41
2022-10-31T07:25:49.247Z,99742.00
2022-10-31T07:28:15.767Z,99746.34
2022-10-31T07:30:42.379Z,99745.50
2022-10-31T07:33:09.598Z,99750.16
2022-10-31T07:35:36.272Z,99753.38
2022-10-31T07:38:14.206Z,99752.88
2022-10-31T07:40:41.934Z,99743.13
2022-10-31T07:43:13.993Z,99756.69
2022-10-31T07:45:41.588Z,99756.09
2022-10-31T07:48:08.133Z,99757.00
2022-10-31T07:50:37.822Z,99750.16
2022-10-31T07:53:09.732Z,99745.88
2022-10-31T07:55:37.010Z,99748.13
2022-10-31T07:58:06.703Z,99758.03
2022-10-31T08:00:35.646Z,99750.16
2022-10-31T08:03:07.732Z,99754.00
2022-10-31T08:05:34.679Z,99751.34
2022-10-31T08:08:01.563Z,99745.91
2022-10-31T08:10:28.598Z,99746.88
2022-10-31T08:13:06.888Z,99745.56
2022-10-31T08:15:35.093Z,99738.38
2022-10-31T08:18:03.200Z,99736.47
2022-10-31T08:20:30.007Z,99738.25
2022-10-31T08:23:02.111Z,99737.34
2022-10-31T08:25:32.347Z,99743.19
2022-10-31T08:28:02.890Z,99737.81
2022-10-31T08:30:32.718Z,99731.78
2022-10-31T08:33:04.547Z,99730.84
2022-10-31T08:35:33.048Z,99721.09
2022-10-31T08:38:00.816Z,99718.84
2022-10-31T08:40:29.547Z,99734.06
2022-10-31T08:42:59.526Z,99722.91
2022-10-31T08:45:26.327Z,99727.91
2022-10-31T08:47:52.914Z,99721.81
2022-10-31T08:50:19.934Z,99715.91
2022-10-31T08:53:04.040Z,99718.44
2022-10-31T08:55:33.207Z,99715.84
2022-10-31T08:58:00.494Z,99720.66
2022-10-31T09:00:27.414Z,99712.09
2022-10-31T09:02:58.788Z,99710.19
2022-10-31T09:05:26.223Z,99712.81
2022-10-31T09:07:56.108Z,99708.16
2022-10-31T09:10:22.701Z,99699.97
2022-10-31T09:12:59.163Z,99696.81
2022-10-31T09:15:27.076Z,99700.34
2022-10-31T09:17:53.905Z,99706.28
2022-10-31T09:20:21.296Z,99706.66
2022-10-31T09:22:47.823Z,99700.41
2022-10-31T09:25:14.846Z,99686.78
2022-10-31T09:27:41.416Z,99698.50
2022-10-31T09:30:08.363Z,99689.81
2022-10-31T09:32:34.857Z,99686.50
2022-10-31T09:35:01.563Z,99689.22
2022-10-31T09:37:28.153Z,99685.03
2022-10-31T09:39:54.727Z,99675.44
2022-10-31T09:42:45.008Z,99668.75
2022-10-31T09:45:26.215Z,99668.56
2022-10-31T09:47:55.819Z,99671.31
2022-10-31T09:50:48.542Z,99680.91
2022-10-31T09:53:33.909Z,99677.22
2022-10-31T09:56:01.497Z,99675.63
2022-10-31T09:58:32.111Z,99672.25
2022-10-31T10:01:04.222Z,99659.88
2022-10-31T10:03:43.843Z,99663.72
2022-10-31T10:06:19.837Z,99660.16
2022-10-31T10:08:46.457Z,99658.28
2022-10-31T10:11:25.060Z,99662.09
2022-10-31T10:14:36.213Z,99660.59
2022-10-31T10:17:22.869Z,99648.97
2022-10-31T10:20:11.579Z,99649.56
2022-10-31T10:22:47.201Z,99640.69
2022-10-31T10:25:24.528Z,99646.66
2022-10-31T10:28:03.501Z,99641.38
2022-10-31T10:30:39.152Z,99655.56
2022-10-31T10:33:12.309Z,99645.00
2022-10-31T10:35:59.073Z,99647.31
2022-10-31T10:38:46.510Z,99638.22
2022-10-31T10:41:24.295Z,99639.06
2022-10-31T10:43:52.352Z,99645.50
2022-10-31T10:46:38.959Z,99644.22
2022-10-31T10:49:19.732Z,99648.25
2022-10-31T10:55:16.898Z,99650.69
2022-10-31T10:57:47.184Z,99646.53
2022-10-31T11:00:23.194Z,99652.81
2022-10-31T11:02:50.487Z,99637.88
2022-10-31T11:05:31.240Z,99640.13
2022-10-31T11:07:57.792Z,99628.25
2022-10-31T11:10:24.800Z,99634.84
2022-10-31T11:13:12.961Z,99621.09
2022-10-31T11:16:04.290Z,99607.28
2022-10-31T11:18:34.096Z,99603.44
2022-10-31T11:21:06.431Z,99597.03
2022-10-31T11:23:33.972Z,99591.13
2022-10-31T11:26:05.947Z,99584.66
2022-10-31T11:28:35.898Z,99581.91
2022-10-31T11:31:11.957Z,99580.28
2022-10-31T11:33:50.374Z,99581.38
2022-10-31T11:36:24.983Z,99577.66
2022-10-31T11:38:53.426Z,99562.25
2022-10-31T11:41:26.758Z,99560.06
2022-10-31T11:43:58.276Z,99555.69
2022-10-31T11:46:38.371Z,99541.59
2022-10-31T11:49:06.445Z,99539.22
2022-10-31T11:51:35.786Z,99533.91
2022-10-31T11:54:04.774Z,99523.47
2022-10-31T11:56:41.910Z,99525.56
2022-10-31T11:59:21.877Z,99520.75
2022-10-31T12:01:51.497Z,99514.16
2022-10-31T12:04:18.517Z,99516.03
2022-10-31T12:06:47.391Z,99517.53
2022-10-31T12:09:21.952Z,99500.53
2022-10-31T12:11:57.527Z,99488.75
2022-10-31T12:14:34.887Z,99481.03
2022-10-31T12:17:14.570Z,99483.78
2022-10-31T12:20:01.013Z,99475.06
2022-10-31T12:22:44.976Z,99476.91
2022-10-31T12:25:24.178Z,99471.22
2022-10-31T12:27:59.940Z,99474.19
2022-10-31T12:30:55.566Z,99470.97
2022-10-31T12:33:55.749Z,99460.78
2022-10-31T12:36:53.819Z,99452.09
2022-10-31T12:39:27.000Z,99435.91
2022-10-31T12:42:43.112Z,99448.00
2022-10-31T12:45:27.921Z,99428.47
2022-10-31T12:48:22.072Z,99426.75
2022-10-31T12:50:58.590Z,99419.44
2022-10-31T12:53:50.093Z,99413.75
2022-10-31T12:56:31.798Z,99417.50
2022-10-31T12:59:28.121Z,99395.22
2022-10-31T13:02:00.770Z,99393.56
2022-10-31T13:04:49.630Z,99390.50
2022-10-31T13:07:42.186Z,99391.09
2022-10-31T13:10:20.631Z,99376.72
2022-10-31T13:12:51.400Z,99373.94
2022-10-31T13:15:25.460Z,99371.81
2022-10-31T13:17:56.712Z,99371.38
2022-10-31T13:20:33.136Z,99368.44
2022-10-31T13:23:49.869Z,99359.56
2022-10-31T13:26:29.123Z,99357.94
2022-10-31T13:29:06.528Z,99341.34
2022-10-31T13:31:34.413Z,99342.19
2022-10-31T13:34:20.401Z,99338.31
2022-10-31T13:36:57.685Z,99340.16
2022-10-31T13:40:06.127Z,99311.31
2022-10-31T13:42:46.742Z,99311.34
2022-10-31T13:45:19.713Z,99321.03
2022-10-31T13:48:15.891Z,99295.97
2022-10-31T13:50:44.748Z,99300.53
2022-10-31T13:53:24.323Z,99310.50
2022-10-31T13:56:05.940Z,99302.06
2022-10-31T13:58:33.046Z,99302.78
2022-10-31T14:01:26.081Z,99299.16
2022-10-31T14:04:20.799Z,99303.78
2022-10-31T14:07:16.154Z,99304.59
2022-10-31T14:10:21.450Z,99305.19
2022-10-31T14:12:49.878Z,99305.09
2022-10-31T14:15:22.413Z,99296.44
2022-10-31T14:17:55.355Z,99299.72
2022-10-31T14:20:42.636Z,99282.88
2022-10-31T14:23:34.904Z,99279.72
2022-10-31T14:26:27.722Z,99277.47
2022-10-31T14:28:57.490Z,99263.63
2022-10-31T14:31:43.251Z,99273.38
2022-10-31T14:34:12.690Z,99277.31
2022-10-31T14:36:57.497Z,99276.28
2022-10-31T14:39:42.550Z,99270.88
2022-10-31T14:42:17.890Z,99267.13
2022-10-31T14:45:03.216Z,99256.31
2022-10-31T14:47:29.806Z,99263.66
2022-10-31T14:50:31.810Z,99270.09
2022-10-31T14:53:03.009Z,99268.91
2022-10-31T14:55:30.456Z,99259.19
2022-10-31T14:58:01.214Z,99255.84
2022-10-31T15:00:30.425Z,99252.41
2022-10-31T15:03:31.056Z,99270.06
2022-10-31T15:06:01.647Z,99254.22
2022-10-31T15:08:46.931Z,99246.88
2022-10-31T15:11:25.829Z,99242.72
2022-10-31T15:13:54.779Z,99250.22
2022-10-31T15:16:41.511Z,99241.66
2022-10-31T15:19:21.349Z,99231.56
2022-10-31T15:21:48.145Z,99232.06
2022-10-31T15:24:22.410Z,99234.50
2022-10-31T15:26:51.991Z,99234.97
2022-10-31T15:29:23.543Z,99234.22
2022-10-31T15:32:14.015Z,99237.81
2022-10-31T15:34:43.471Z,99246.84
2022-10-31T15:37:18.212Z,99245.00
2022-10-31T15:39:46.040Z,99248.44
2022-10-31T15:42:33.741Z,99241.50
2022-10-31T15:45:17.103Z,99249.63
2022-10-31T15:48:08.779Z,99252.09
2022-10-31T15:50:38.293Z,99236.88
2022-10-31T15:53:15.298Z,99246.63
2022-10-31T15:55:50.268Z,99244.38
2022-10-31T15:58:18.717Z,99244.78
2022-10-31T16:00:45.581Z,99239.34
2022-10-31T16:03:15.208Z,99243.63
2022-10-31T16:05:47.008Z,99233.16
2022-10-31T16:08:31.895Z,99239.53
2022-10-31T16:11:07.308Z,99239.50
2022-10-31T16:13:38.289Z,99228.22
2022-10-31T16:19:02.664Z,99224.78
2022-10-31T16:21:36.536Z,99233.59
2022-10-31T16:24:15.581Z,99229.19
2022-10-31T16:26:42.698Z,99230.72
2022-10-31T16:29:26.821Z,99242.34
2022-10-31T16:31:53.355Z,99237.44
2022-10-31T16:34:26.903Z,99239.38
2022-10-31T16:36:54.147Z,99239.09
2022-10-31T16:39:21.090Z,99234.97
2022-10-31T16:41:51.487Z,99229.22
2022-10-31T16:44:22.434Z,99236.00
2022-10-31T16:46:49.110Z,99235.72
2022-10-31T16:49:16.725Z,99239.75
2022-10-31T16:51:43.910Z,99238.31
2022-10-31T16:54:11.771Z,99235.31
2022-10-31T16:56:39.833Z,99238.69
2022-10-31T16:59:15.868Z,99235.69
2022-10-31T17:01:48.643Z,99235.84
2022-10-31T17:04:15.729Z,99233.31
2022-10-31T17:06:43.263Z,99233.03
2022-10-31T17:09:09.890Z,99239.13
2022-10-31T17:11:37.221Z,99235.94
2022-10-31T17:14:05.348Z,99238.16
2022-10-31T17:16:31.892Z,99242.66
2022-10-31T17:18:58.453Z,99245.38
2022-10-31T17:21:27.940Z,99258.97
2022-10-31T17:23:54.605Z,99254.66
2022-10-31T17:26:21.471Z,99256.44
2022-10-31T17:28:48.084Z,99249.22
2022-10-31T17:31:22.672Z,99249.09
2022-10-31T17:33:50.068Z,99254.06
2022-10-31T17:36:16.918Z,99251.97
2022-10-31T17:38:43.607Z,99259.13
2022-10-31T17:41:11.436Z,99250.03
2022-10-31T17:43:38.414Z,99247.97
2022-10-31T17:46:05.775Z,99248.91
2022-10-31T17:48:35.353Z,99247.31
2022-10-31T17:51:03.614Z,99243.97
2022-10-31T17:53:31.450Z,99238.72
2022-10-31T17:56:16.371Z,99241.91
2022-10-31T17:58:43.048Z,99240.00
2022-10-31T18:01:18.140Z,99244.97
2022-10-31T18:03:45.195Z,99240.94
2022-10-31T18:06:14.405Z,99244.47
2022-10-31T18:08:41.413Z,99245.59
2022-10-31T18:11:17.861Z,99255.53
2022-10-31T18:13:44.486Z,99264.78
2022-10-31T18:16:13.578Z,99253.41
2022-10-31T18:18:40.493Z,99252.47
2022-10-31T18:21:07.138Z,99247.66
2022-10-31T18:23:33.997Z,99240.16
2022-10-31T18:26:00.537Z,99247.84
2022-10-31T18:28:27.255Z,99241.94
2022-10-31T18:30:53.884Z,99240.63
2022-10-31T18:33:20.523Z,99236.31
2022-10-31T18:35:47.032Z,99244.81
2022-10-31T18:38:13.557Z,99237.28
2022-10-31T18:40:40.128Z,99236.78
2022-10-31T18:43:06.668Z,99230.88
2022-10-31T18:45:45.920Z,99220.84
2022-10-31T18:48:14.648Z,99216.81
2022-10-31T18:50:41.836Z,99227.69
2022-10-31T18:53:08.411Z,99215.22
2022-10-31T18:55:39.908Z,99212.03
2022-10-31T18:58:07.988Z,99208.22
2022-10-31T19:00:34.518Z,99204.38
2022-10-31T19:03:01.478Z,99198.28
2022-10-31T19:05:28.460Z,99190.16
2022-10-31T19:07:54.963Z,99194.47
2022-10-31T19:10:21.477Z,99183.94
2022-10-31T19:12:48.003Z,99189.66
2022-10-31T19:15:14.593Z,99186.47
2022-10-31T19:17:41.172Z,99191.91
2022-10-31T19:20:08.400Z,99181.69
2022-10-31T19:22:34.922Z,99176.91
2022-10-31T19:25:05.031Z,99173.25
2022-10-31T19:27:35.839Z,99174.34
2022-10-31T19:30:02.442Z,99165.72
2022-10-31T19:32:28.963Z,99170.66
2022-10-31T19:34:55.453Z,99181.50
2022-10-31T19:37:22.093Z,99174.00
2022-10-31T19:39:48.592Z,99181.03
2022-10-31T19:42:15.111Z,99181.84
2022-10-31T19:44:41.702Z,99188.06
2022-10-31T19:47:08.227Z,99184.22
2022-10-31T19:49:34.710Z,99181.22
2022-10-31T19:52:01.312Z,99178.97
2022-10-31T19:54:27.865Z,99174.34
2022-10-31T19:56:54.414Z,99168.13
2022-10-31T19:59:21.103Z,99169.53
2022-10-31T20:01:47.727Z,99166.50
2022-10-31T20:04:14.397Z,99167.94
2022-10-31T20:06:41.660Z,99163.03
2022-10-31T20:09:13.110Z,99157.25
2022-10-31T20:11:40.520Z,99163.97
2022-10-31T20:14:08.829Z,99159.03
2022-10-31T20:16:35.399Z,99157.44
2022-10-31T20:19:02.015Z,99157.44
2022-10-31T20:21:31.056Z,99158.69
2022-10-31T20:24:02.741Z,99152.94
2022-10-31T20:26:30.937Z,99159.97
2022-10-31T20:28:58.857Z,99160.44
2022-10-31T20:31:28.393Z,99151.66
2022-10-31T20:33:55.883Z,99149.13
2022-10-31T20:36:23.440Z,99146.53
2022-10-31T20:38:51.642Z,99144.31
2022-10-31T20:41:18.273Z,99137.13
2022-10-31T20:43:45.193Z,99146.22
2022-10-31T20:46:15.219Z,99145.56
2022-10-31T20:48:42.364Z,99154.19
2022-10-31T20:51:13.870Z,99144.91
2022-10-31T20:53:40.730Z,99148.13
2022-10-31T20:56:09.846Z,99148.28
2022-10-31T20:58:37.685Z,99146.03
2022-10-31T21:01:05.925Z,99131.03
2022-10-31T21:03:32.782Z,99137.06
2022-10-31T21:06:01.710Z,99137.53
2022-10-31T21:08:31.004Z,99141.53
2022-10-31T21:10:58.838Z,99139.75
2022-10-31T21:13:25.835Z,99143.09
2022-10-31T21:16:03.025Z,99148.22
2022-10-31T21:18:30.076Z,99143.28
2022-10-31T21:20:56.710Z,99148.06
2022-10-31T21:23:23.569Z,99157.47
2022-10-31T21:25:50.264Z,99158.75
2022-10-31T21:28:16.999Z,99160.03
2022-10-31T21:30:45.843Z,99161.16
2022-10-31T21:33:12.826Z,99165.59
2022-10-31T21:35:39.304Z,99162.75
2022-10-31T21:38:05.902Z,99149.28
2022-10-31T21:40:32.551Z,99155.19
2022-10-31T21:42:59.318Z,99145.59
2022-10-31T21:45:26.099Z,99136.78
2022-10-31T21:47:52.674Z,99176.72
2022-10-31T21:50:19.333Z,99187.28
2022-10-31T21:52:45.829Z,99199.53
2022-10-31T21:55:12.321Z,99209.16
2022-10-31T21:57:39.081Z,99208.00
2022-10-31T22:00:09.044Z,99228.19
2022-10-31T22:02:36.883Z,99223.59
2022-10-31T22:05:04.184Z,99242.53
2022-10-31T22:07:32.403Z,99219.97
2022-10-31T22:09:58.941Z,99230.59
2022-10-31T22:12:25.480Z,99215.94
2022-10-31T22:14:52.123Z,99218.56
2022-10-31T22:17:19.100Z,99219.84
2022-10-31T22:19:45.631Z,99198.94
2022-10-31T22:22:13.145Z,99215.06
2022-10-31T22:24:39.676Z,99210.47
2022-10-31T22:27:06.182Z,99195.31
2022-10-31T22:29:32.698Z,99183.03
2022-10-31T22:32:00.548Z,99183.13
2022-10-31T22:34:28.305Z,99170.16
2022-10-31T22:36:56.364Z,99164.47
2022-10-31T22:39:22.980Z,99152.66
2022-10-31T22:41:49.515Z,99147.88
2022-10-31T22:44:16.045Z,99137.63
2022-10-31T22:46:42.577Z,99139.09
2022-10-31T22:49:14.968Z,99145.22
2022-10-31T22:51:43.797Z,99159.16
2022-10-31T22:54:16.614Z,99183.22
2022-10-31T22:56:43.121Z,99180.16
2022-10-31T22:59:13.233Z,99176.31
2022-10-31T23:01:39.776Z,99184.81
2022-10-31T23:04:06.609Z,99188.66
2022-10-31T23:06:33.400Z,99187.06
2022-10-31T23:09:01.538Z,99177.63
2022-10-31T23:11:40.595Z,99151.41
2022-10-31T23:14:15.823Z,99149.59
2022-10-31T23:16:50.702Z,99145.75
2022-10-31T23:19:20.426Z,99141.88
2022-10-31T23:21:55.812Z,99132.13
2022-10-31T23:24:24.618Z,99121.69
2022-10-31T23:27:07.552Z,99109.19
2022-10-31T23:29:38.884Z,99110.56
2022-10-31T23:32:07.790Z,99105.09
2022-10-31T23:34:34.300Z,99120.78
2022-10-31T23:37:00.993Z,99131.00
2022-10-31T23:39:27.557Z,99131.00
2022-10-31T23:41:54.235Z,99128.72
2022-10-31T23:44:20.815Z,99126.47
2022-10-31T23:46:47.556Z,99135.09
2022-10-31T23:49:14.116Z,99141.47
2022-10-31T23:51:40.786Z,99139.69
2022-10-31T23:54:07.978Z,99141.75
2022-10-31T23:56:34.580Z,99145.72
2022-10-31T23:59:01.949Z,99143.44
